createdAt,value
2019-02-25T00:03:29.053Z,11.13
2019-02-25T00:06:11.331Z,11.10
2019-02-25T00:08:46.496Z,12.13
2019-02-25T00:11:21.502Z,12.00
2019-02-25T00:13:56.364Z,12.17
2019-02-25T00:16:34.541Z,12.10
2019-02-25T00:19:09.386Z,10.50
2019-02-25T00:21:50.726Z,10.70
2019-02-25T00:24:25.606Z,11.33
2019-02-25T00:27:00.623Z,10.50
2019-02-25T00:29:35.598Z,11.13
2019-02-25T00:32:11.438Z,9.87
2019-02-25T00:34:46.305Z,12.23
2019-02-25T00:37:21.203Z,11.00
2019-02-25T00:39:56.180Z,10.70
2019-02-25T00:42:31.119Z,11.60
2019-02-25T00:48:47.466Z,10.90
2019-02-25T00:51:22.467Z,10.33
2019-02-25T01:00:14.290Z,12.63
2019-02-25T01:06:08.938Z,10.90
2019-02-25T01:09:08.558Z,11.70
2019-02-25T01:12:07.614Z,11.90
2019-02-25T01:14:58.621Z,12.57
2019-02-25T01:24:27.813Z,12.30
2019-02-25T01:30:28.788Z,13.10
2019-02-25T01:33:03.692Z,12.77
2019-02-25T01:36:00.059Z,13.37
2019-02-25T01:38:35.028Z,12.10
2019-02-25T01:41:16.141Z,12.33
2019-02-25T01:44:09.197Z,12.23
2019-02-25T01:50:59.006Z,12.27
2019-02-25T01:53:45.600Z,12.00
2019-02-25T01:56:31.281Z,12.07
2019-02-25T01:59:29.341Z,13.97
2019-02-25T02:02:17.462Z,12.27
2019-02-25T02:04:52.353Z,13.30
2019-02-25T02:07:28.148Z,12.97
2019-02-25T02:10:03.992Z,11.90
2019-02-25T02:12:53.206Z,13.50
2019-02-25T02:15:42.287Z,12.70
2019-02-25T02:18:31.214Z,13.17
2019-02-25T02:21:28.455Z,12.77
2019-02-25T02:24:17.040Z,13.27
2019-02-25T02:27:06.790Z,12.97
2019-02-25T02:29:56.221Z,13.37
2019-02-25T02:32:32.007Z,12.07
2019-02-25T02:35:29.893Z,14.00
2019-02-25T02:38:07.034Z,13.33
2019-02-25T02:40:55.981Z,14.23
2019-02-25T02:43:46.070Z,14.67
2019-02-25T02:46:44.702Z,13.67
2019-02-25T02:49:33.514Z,14.30
2019-02-25T02:52:22.352Z,13.57
2019-02-25T02:55:13.325Z,14.00
2019-02-25T02:58:05.782Z,14.67
2019-02-25T03:00:55.161Z,14.20
2019-02-25T03:03:45.275Z,13.17
2019-02-25T03:06:36.131Z,12.90
2019-02-25T03:09:29.277Z,13.47
2019-02-25T03:12:06.119Z,14.60
2019-02-25T03:15:15.595Z,13.70
2019-02-25T03:18:13.669Z,12.93
2019-02-25T03:21:03.602Z,13.60
2019-02-25T03:23:39.864Z,13.53
2019-02-25T03:27:06.575Z,13.10
2019-02-25T03:36:07.935Z,12.30
2019-02-25T03:38:43.706Z,12.97
2019-02-25T03:41:32.787Z,12.40
2019-02-25T03:44:33.338Z,14.00
2019-02-25T03:47:08.237Z,12.47
2019-02-25T03:49:43.139Z,13.63
2019-02-25T03:52:18.911Z,12.70
2019-02-25T03:54:54.778Z,13.90
2019-02-25T03:57:29.733Z,13.23
2019-02-25T04:03:58.098Z,13.17
2019-02-25T04:10:09.928Z,12.77
2019-02-25T04:12:45.865Z,13.30
2019-02-25T04:15:36.979Z,13.27
2019-02-25T04:18:14.305Z,13.07
2019-02-25T04:20:51.656Z,13.90
2019-02-25T04:23:28.999Z,12.13
2019-02-25T04:26:06.366Z,13.50
2019-02-25T04:28:43.676Z,13.23
2019-02-25T04:31:19.902Z,13.10
2019-02-25T04:33:55.795Z,13.00
2019-02-25T04:36:31.547Z,12.70
2019-02-25T04:40:08.279Z,12.40
2019-02-25T04:43:06.270Z,13.23
2019-02-25T04:50:34.187Z,11.70
2019-02-25T04:53:09.117Z,13.00
2019-02-25T04:55:44.010Z,12.03
2019-02-25T04:59:15.276Z,13.10
2019-02-25T05:10:27.911Z,11.63
2019-02-25T05:13:19.726Z,13.73
2019-02-25T05:19:31.363Z,12.70
2019-02-25T05:30:03.629Z,12.80
2019-02-25T05:32:47.623Z,12.90
2019-02-25T05:35:23.411Z,12.37
2019-02-25T05:42:35.904Z,13.40
2019-02-25T05:45:11.026Z,12.93
2019-02-25T05:51:16.224Z,13.27
2019-02-25T05:53:54.046Z,12.53
2019-02-25T05:56:28.817Z,12.43
2019-02-25T05:59:51.162Z,11.83
2019-02-25T06:03:12.335Z,12.37
2019-02-25T06:09:35.375Z,12.37
2019-02-25T06:12:57.373Z,13.13
2019-02-25T06:15:32.468Z,12.27
2019-02-25T06:18:10.374Z,12.53
2019-02-25T06:23:43.261Z,12.90
2019-02-25T06:26:33.166Z,11.90
2019-02-25T06:29:33.853Z,11.90
2019-02-25T06:32:09.563Z,12.43
2019-02-25T06:34:45.359Z,14.20
2019-02-25T06:37:33.921Z,12.23
2019-02-25T06:40:10.919Z,11.47
2019-02-25T06:42:47.084Z,11.37
2019-02-25T06:45:23.059Z,13.53
2019-02-25T06:47:57.971Z,12.97
2019-02-25T06:50:33.047Z,13.50
2019-02-25T06:53:08.444Z,12.47
2019-02-25T06:55:43.599Z,12.80
2019-02-25T06:58:18.471Z,14.10
2019-02-25T07:00:53.450Z,13.33
2019-02-25T07:03:28.622Z,12.10
2019-02-25T07:06:17.464Z,12.90
2019-02-25T07:09:05.965Z,12.53
2019-02-25T07:12:02.652Z,12.77
2019-02-25T07:14:49.510Z,13.13
2019-02-25T07:17:43.360Z,12.50
2019-02-25T07:20:28.615Z,12.47
2019-02-25T07:23:09.196Z,12.07
2019-02-25T07:25:54.207Z,13.10
2019-02-25T07:28:51.826Z,13.00
2019-02-25T07:31:41.679Z,12.53
2019-02-25T07:34:38.461Z,12.90
2019-02-25T07:37:25.923Z,12.57
2019-02-25T07:40:23.695Z,13.00
2019-02-25T07:43:12.965Z,13.17
2019-02-25T07:46:11.573Z,12.83
2019-02-25T07:49:05.711Z,13.57
2019-02-25T07:51:57.829Z,13.17
2019-02-25T07:54:51.640Z,14.40
2019-02-25T07:58:04.542Z,14.33
2019-02-25T08:00:49.397Z,13.57
2019-02-25T08:03:30.970Z,14.20
2019-02-25T08:06:20.310Z,13.50
2019-02-25T08:09:05.003Z,14.73
2019-02-25T08:12:06.541Z,14.00
2019-02-25T08:15:03.049Z,15.20
2019-02-25T08:17:48.676Z,16.10
2019-02-25T08:20:45.636Z,16.83
2019-02-25T08:23:38.495Z,17.27
2019-02-25T08:26:47.104Z,16.80
2019-02-25T08:29:53.088Z,16.53
2019-02-25T08:32:52.522Z,16.07
2019-02-25T08:36:39.673Z,14.03
2019-02-25T08:39:24.409Z,14.17
2019-02-25T08:42:23.731Z,14.57
2019-02-25T08:45:07.283Z,12.93
2019-02-25T08:47:48.864Z,15.80
2019-02-25T08:50:25.671Z,12.77
2019-02-25T08:53:00.438Z,14.00
2019-02-25T08:55:35.453Z,13.10
2019-02-25T08:58:10.488Z,11.13
2019-02-25T09:00:45.320Z,11.57
2019-02-25T09:03:20.409Z,12.43
2019-02-25T09:05:55.232Z,11.60
2019-02-25T09:08:30.172Z,12.97
2019-02-25T09:11:13.755Z,11.63
2019-02-25T09:13:42.485Z,12.23
2019-02-25T09:16:17.402Z,12.00
2019-02-25T09:18:52.296Z,12.73
2019-02-25T09:21:31.842Z,10.77
2019-02-25T09:24:03.990Z,12.13
2019-02-25T09:26:42.638Z,12.80
2019-02-25T09:29:17.515Z,11.90
2019-02-25T09:31:52.494Z,13.00
2019-02-25T09:34:27.384Z,13.80
2019-02-25T09:37:02.372Z,11.97
2019-02-25T09:39:37.328Z,11.07
2019-02-25T09:42:13.814Z,11.33
2019-02-25T09:44:48.592Z,11.93
2019-02-25T09:47:23.497Z,12.57
2019-02-25T09:49:58.401Z,11.50
2019-02-25T09:52:34.228Z,10.70
2019-02-25T09:55:11.013Z,12.03
2019-02-25T09:57:45.809Z,10.47
2019-02-25T10:00:20.877Z,11.17
2019-02-25T10:02:55.796Z,11.63
2019-02-25T10:05:30.876Z,11.40
2019-02-25T10:08:06.222Z,11.27
2019-02-25T10:10:41.157Z,11.60
2019-02-25T10:13:16.066Z,11.97
2019-02-25T10:15:50.990Z,10.40
2019-02-25T10:18:25.890Z,10.93
2019-02-25T10:21:00.678Z,11.30
2019-02-25T10:23:36.583Z,11.63
2019-02-25T10:26:11.516Z,10.80
2019-02-25T10:28:46.455Z,11.63
2019-02-25T10:31:21.366Z,9.53
2019-02-25T10:33:56.274Z,9.77
2019-02-25T10:36:31.339Z,10.07
2019-02-25T10:39:12.910Z,9.83
2019-02-25T10:41:48.078Z,8.87
2019-02-25T10:44:23.124Z,9.63
2019-02-25T10:46:58.026Z,10.20
2019-02-25T10:49:33.764Z,10.20
2019-02-25T10:52:10.712Z,10.10
2019-02-25T10:54:45.436Z,10.43
2019-02-25T10:57:26.439Z,9.63
2019-02-25T11:00:00.612Z,10.97
2019-02-25T11:02:44.181Z,12.50
2019-02-25T11:05:15.426Z,11.00
2019-02-25T11:07:51.170Z,10.93
2019-02-25T11:10:33.596Z,9.70
2019-02-25T11:13:08.404Z,9.83
2019-02-25T11:15:44.538Z,9.87
2019-02-25T11:18:21.935Z,10.23
2019-02-25T11:20:56.672Z,9.67
2019-02-25T11:23:31.574Z,10.30
2019-02-25T11:26:06.588Z,9.73
2019-02-25T11:28:43.701Z,9.83
2019-02-25T11:31:22.138Z,9.27
2019-02-25T11:33:56.271Z,9.47
2019-02-25T11:36:31.284Z,10.43
2019-02-25T11:39:09.449Z,9.27
2019-02-25T11:41:44.318Z,9.23
2019-02-25T11:44:21.098Z,8.80
2019-02-25T11:46:55.858Z,10.97
2019-02-25T11:49:30.785Z,9.63
2019-02-25T11:52:05.776Z,10.10
2019-02-25T11:54:40.989Z,8.90
2019-02-25T11:57:15.981Z,8.17
2019-02-25T11:59:51.057Z,9.10
2019-02-25T12:02:26.204Z,8.57
2019-02-25T12:05:01.230Z,8.10
2019-02-25T12:07:36.091Z,9.33
2019-02-25T12:10:11.230Z,9.10
2019-02-25T12:12:46.277Z,8.83
2019-02-25T12:15:21.288Z,9.43
2019-02-25T12:17:56.254Z,8.93
2019-02-25T12:20:31.192Z,8.27
2019-02-25T12:23:06.190Z,8.20
2019-02-25T12:25:41.141Z,9.67
2019-02-25T12:28:16.021Z,9.43
2019-02-25T12:30:51.002Z,9.53
2019-02-25T12:33:26.772Z,8.97
2019-02-25T12:36:03.370Z,9.43
2019-02-25T12:38:38.395Z,10.50
2019-02-25T12:41:13.319Z,10.00
2019-02-25T12:43:48.211Z,10.50
2019-02-25T12:46:23.112Z,9.93
2019-02-25T12:48:58.002Z,9.87
2019-02-25T12:51:33.020Z,9.20
2019-02-25T12:54:08.179Z,10.57
2019-02-25T12:56:45.810Z,9.30
2019-02-25T12:59:20.703Z,10.90
2019-02-25T13:01:55.724Z,10.13
2019-02-25T13:04:30.750Z,9.77
2019-02-25T13:07:05.644Z,8.47
2019-02-25T13:09:40.574Z,8.70
2019-02-25T13:12:15.470Z,8.37
2019-02-25T13:14:50.387Z,8.03
2019-02-25T13:17:25.220Z,8.40
2019-02-25T13:20:00.277Z,8.57
2019-02-25T13:22:35.339Z,9.07
2019-02-25T13:25:16.855Z,8.30
2019-02-25T13:27:54.330Z,8.67
2019-02-25T13:30:29.464Z,9.60
2019-02-25T13:33:04.481Z,9.40
2019-02-25T13:35:39.513Z,8.67
2019-02-25T13:38:14.468Z,9.37
2019-02-25T13:40:49.364Z,9.13
2019-02-25T13:43:24.338Z,9.30
2019-02-25T13:45:59.459Z,9.40
2019-02-25T13:48:34.520Z,9.90
2019-02-25T13:51:09.480Z,8.67
2019-02-25T13:53:44.424Z,8.53
2019-02-25T13:56:19.465Z,8.67
2019-02-25T13:58:54.949Z,8.60
2019-02-25T14:01:30.764Z,8.87
2019-02-25T14:04:05.601Z,7.10
2019-02-25T14:06:40.575Z,9.70
2019-02-25T14:09:15.542Z,9.37
2019-02-25T14:11:52.016Z,7.60
2019-02-25T14:14:26.966Z,8.13
2019-02-25T14:17:01.876Z,8.60
2019-02-25T14:19:36.718Z,8.90
2019-02-25T14:22:11.616Z,8.47
2019-02-25T14:24:46.540Z,8.83
2019-02-25T14:27:21.494Z,7.90
2019-02-25T14:29:56.313Z,9.30
2019-02-25T14:32:31.405Z,9.03
2019-02-25T14:35:07.866Z,9.07
2019-02-25T14:37:43.167Z,9.57
2019-02-25T14:40:21.635Z,8.90
2019-02-25T14:42:57.449Z,8.60
2019-02-25T14:45:34.295Z,9.50
2019-02-25T14:48:10.771Z,9.00
2019-02-25T14:50:46.374Z,10.20
2019-02-25T14:53:21.383Z,10.30
2019-02-25T14:55:58.399Z,10.57
2019-02-25T14:58:35.562Z,10.03
2019-02-25T15:01:09.791Z,9.33
2019-02-25T15:03:44.682Z,9.60
2019-02-25T15:06:19.644Z,9.43
2019-02-25T15:08:54.553Z,9.93
2019-02-25T15:11:29.611Z,9.13
2019-02-25T15:14:05.926Z,9.50
2019-02-25T15:16:41.284Z,9.20
2019-02-25T15:19:17.059Z,8.63
2019-02-25T15:21:54.110Z,8.60
2019-02-25T15:24:28.711Z,8.53
2019-02-25T15:27:04.490Z,9.17
2019-02-25T15:29:42.138Z,9.30
2019-02-25T15:32:17.205Z,8.13
2019-02-25T15:34:52.835Z,8.60
2019-02-25T15:37:29.259Z,7.60
2019-02-25T15:40:16.007Z,7.80
2019-02-25T15:43:02.828Z,7.67
2019-02-25T15:45:40.674Z,7.53
2019-02-25T15:48:18.504Z,8.50
2019-02-25T15:50:57.958Z,8.20
2019-02-25T15:53:33.362Z,8.17
2019-02-25T15:56:10.659Z,7.80
2019-02-25T15:58:47.388Z,8.57
2019-02-25T16:01:22.312Z,8.07
2019-02-25T16:04:02.258Z,8.23
2019-02-25T16:06:35.579Z,7.90
2019-02-25T16:09:13.140Z,8.30
2019-02-25T16:11:48.072Z,8.63
2019-02-25T16:14:23.908Z,9.10
2019-02-25T16:16:59.950Z,9.50
2019-02-25T16:19:41.369Z,8.10
2019-02-25T16:22:11.855Z,8.33
2019-02-25T16:24:47.132Z,8.77
2019-02-25T16:27:23.242Z,9.77
2019-02-25T16:30:00.250Z,8.87
2019-02-25T16:32:40.123Z,9.53
2019-02-25T16:35:15.717Z,9.60
2019-02-25T16:37:53.096Z,9.13
2019-02-25T16:40:29.160Z,9.47
2019-02-25T16:43:05.271Z,8.80
2019-02-25T16:45:42.587Z,9.23
2019-02-25T16:48:18.862Z,9.43
2019-02-25T16:50:54.147Z,9.03
2019-02-25T16:53:29.707Z,9.43
2019-02-25T16:56:05.751Z,10.00
2019-02-25T16:58:42.662Z,9.40
2019-02-25T17:01:19.986Z,9.93
2019-02-25T17:03:54.983Z,9.17
2019-02-25T17:06:30.843Z,9.60
2019-02-25T17:09:11.785Z,9.63
2019-02-25T17:11:47.246Z,10.27
2019-02-25T17:14:40.075Z,9.53
2019-02-25T17:17:59.110Z,9.47
2019-02-25T17:20:35.376Z,9.10
2019-02-25T17:23:10.415Z,8.50
2019-02-25T17:25:45.307Z,9.40
2019-02-25T17:28:20.825Z,9.80
2019-02-25T17:30:56.796Z,10.40
2019-02-25T17:33:34.506Z,9.93
2019-02-25T17:36:12.411Z,9.83
2019-02-25T17:38:49.620Z,9.50
2019-02-25T17:41:24.300Z,9.73
2019-02-25T17:44:01.324Z,9.50
2019-02-25T17:49:38.971Z,10.33
2019-02-25T17:52:16.365Z,11.03
2019-02-25T17:55:06.359Z,9.10
2019-02-25T17:57:42.005Z,10.97
2019-02-25T18:00:32.599Z,10.00
2019-02-25T18:03:09.598Z,10.40
2019-02-25T18:05:44.717Z,10.23
2019-02-25T18:08:20.196Z,10.80
2019-02-25T18:10:54.999Z,11.00
2019-02-25T18:13:30.659Z,11.80
2019-02-25T18:16:08.549Z,11.40
2019-02-25T18:18:45.101Z,11.67
2019-02-25T18:21:20.860Z,12.03
2019-02-25T18:24:00.041Z,11.47
2019-02-25T18:26:35.394Z,11.50
2019-02-25T18:29:11.717Z,12.40
2019-02-25T18:31:47.123Z,11.20
2019-02-25T18:34:22.149Z,12.43
2019-02-25T18:36:57.072Z,11.97
2019-02-25T18:39:32.155Z,12.33
2019-02-25T18:42:09.202Z,11.37
2019-02-25T18:44:45.350Z,10.90
2019-02-25T18:47:23.462Z,13.77
2019-02-25T18:50:00.956Z,12.27
2019-02-25T18:52:38.520Z,12.17
2019-02-25T18:55:16.013Z,12.37
2019-02-25T18:57:52.314Z,12.67
2019-02-25T19:00:40.134Z,13.83
2019-02-25T19:03:15.219Z,12.43
2019-02-25T19:05:52.815Z,13.23
2019-02-25T19:08:29.053Z,12.97
2019-02-25T19:11:04.318Z,13.33
2019-02-25T19:13:39.443Z,14.57
2019-02-25T19:16:15.848Z,14.30
2019-02-25T19:18:51.311Z,14.40
2019-02-25T19:21:29.533Z,14.87
2019-02-25T19:24:05.557Z,14.93
2019-02-25T19:26:43.008Z,14.70
2019-02-25T19:29:25.864Z,15.23
2019-02-25T19:32:01.837Z,15.20
2019-02-25T19:34:39.743Z,14.33
2019-02-25T19:37:15.494Z,15.80
2019-02-25T19:39:50.735Z,16.37
2019-02-25T19:42:26.967Z,16.07
2019-02-25T19:45:06.351Z,15.70
2019-02-25T19:47:43.217Z,16.00
2019-02-25T19:50:18.865Z,15.23
2019-02-25T19:52:54.922Z,17.00
2019-02-25T19:55:29.967Z,18.20
2019-02-25T19:58:05.243Z,18.30
2019-02-25T20:00:40.153Z,16.17
2019-02-25T20:03:15.246Z,16.57
2019-02-25T20:05:52.082Z,15.67
2019-02-25T20:08:27.139Z,15.40
2019-02-25T20:11:02.159Z,16.60
2019-02-25T20:13:37.475Z,17.17
2019-02-25T20:16:15.751Z,17.17
2019-02-25T20:18:49.115Z,17.40
2019-02-25T20:21:24.602Z,17.67
2019-02-25T20:24:00.888Z,16.80
2019-02-25T20:26:36.370Z,17.23
2019-02-25T20:29:12.739Z,17.53
2019-02-25T20:31:49.618Z,15.70
2019-02-25T20:34:25.892Z,17.70
2019-02-25T20:37:02.282Z,17.77
2019-02-25T20:39:38.642Z,16.63
2019-02-25T20:42:17.301Z,17.63
2019-02-25T20:44:52.973Z,16.83
2019-02-25T20:47:28.629Z,16.27
2019-02-25T20:50:05.390Z,14.30
2019-02-25T20:52:40.885Z,15.83
2019-02-25T20:55:17.814Z,16.17
2019-02-25T20:57:54.390Z,16.00
2019-02-25T21:00:29.702Z,14.93
2019-02-25T21:03:04.826Z,14.80
2019-02-25T21:05:39.927Z,14.97
2019-02-25T21:08:19.157Z,15.40
2019-02-25T21:10:54.632Z,16.60
2019-02-25T21:13:31.262Z,15.50
2019-02-25T21:16:09.812Z,16.67
2019-02-25T21:18:44.383Z,16.60
2019-02-25T21:21:20.347Z,16.90
2019-02-25T21:23:55.363Z,17.30
2019-02-25T21:26:31.559Z,17.00
2019-02-25T21:29:09.588Z,18.03
2019-02-25T21:31:45.730Z,17.40
2019-02-25T21:34:24.111Z,18.57
2019-02-25T21:36:58.541Z,17.87
2019-02-25T21:39:36.146Z,16.37
2019-02-25T21:42:14.755Z,17.03
2019-02-25T21:44:48.629Z,16.37
2019-02-25T21:47:28.715Z,17.97
2019-02-25T21:50:11.881Z,16.97
2019-02-25T21:52:47.973Z,16.90
2019-02-25T21:55:25.110Z,17.80
2019-02-25T21:58:02.111Z,17.93
2019-02-25T22:00:40.218Z,17.53
2019-02-25T22:03:15.677Z,18.13
2019-02-25T22:05:53.251Z,18.70
2019-02-25T22:08:29.049Z,19.27
2019-02-25T22:11:12.382Z,18.17
2019-02-25T22:13:42.042Z,18.27
2019-02-25T22:16:17.081Z,19.43
2019-02-25T22:18:52.670Z,18.67
2019-02-25T22:21:28.607Z,19.30
2019-02-25T22:24:05.393Z,20.00
2019-02-25T22:26:40.290Z,19.47
2019-02-25T22:29:15.224Z,19.87
2019-02-25T22:31:50.206Z,18.43
2019-02-25T22:34:25.453Z,19.63
2019-02-25T22:37:02.414Z,19.53
2019-02-25T22:39:38.060Z,21.67
2019-02-25T22:42:13.862Z,21.67
2019-02-25T22:44:49.667Z,19.90
2019-02-25T22:47:25.539Z,20.57
2019-02-25T22:50:00.584Z,21.60
2019-02-25T22:52:37.317Z,19.63
2019-02-25T22:55:14.851Z,22.43
2019-02-25T22:57:53.459Z,20.27
2019-02-25T23:00:31.218Z,20.70
2019-02-25T23:03:11.088Z,21.90
2019-02-25T23:05:45.987Z,20.27
2019-02-25T23:08:23.423Z,20.43
2019-02-25T23:10:58.010Z,19.60
2019-02-25T23:13:33.092Z,20.63
2019-02-25T23:16:08.320Z,19.60
2019-02-25T23:18:43.306Z,20.00
2019-02-25T23:21:23.915Z,18.77
2019-02-25T23:23:55.857Z,17.77
2019-02-25T23:26:31.461Z,19.43
2019-02-25T23:29:06.517Z,18.90
2019-02-25T23:31:43.421Z,19.53
2019-02-25T23:34:20.328Z,19.90
2019-02-25T23:36:56.204Z,19.93
2019-02-25T23:39:32.389Z,19.83
2019-02-25T23:42:09.245Z,19.10
2019-02-25T23:44:44.784Z,19.77
2019-02-25T23:47:19.632Z,19.73
2019-02-25T23:49:55.466Z,20.40
2019-02-25T23:52:33.647Z,18.43
2019-02-25T23:55:12.236Z,17.80
2019-02-25T23:57:45.948Z,19.33
